createdAt,value
2023-05-04T00:00:41.866Z,50.18
2023-05-04T00:03:10.396Z,50.50
2023-05-04T00:05:38.676Z,50.46
2023-05-04T00:08:09.036Z,50.37
2023-05-04T00:10:37.355Z,50.49
2023-05-04T00:13:05.614Z,50.68
2023-05-04T00:15:33.909Z,50.71
2023-05-04T00:18:02.309Z,50.84
2023-05-04T00:20:30.616Z,50.95
2023-05-04T00:22:58.964Z,50.93
2023-05-04T00:25:28.610Z,50.88
2023-05-04T00:27:56.968Z,51.06
2023-05-04T00:30:25.262Z,51.00
2023-05-04T00:32:54.133Z,51.01
2023-05-04T00:35:22.434Z,50.92
2023-05-04T00:37:51.228Z,50.92
2023-05-04T00:40:19.511Z,50.88
2023-05-04T00:42:49.249Z,50.76
2023-05-04T00:45:17.607Z,50.76
2023-05-04T00:47:46.016Z,50.84
2023-05-04T00:50:14.360Z,50.87
2023-05-04T00:52:44.768Z,50.99
2023-05-04T00:55:14.508Z,51.07
2023-05-04T00:57:43.404Z,50.97
2023-05-04T01:00:14.200Z,50.78
2023-05-04T01:02:42.787Z,50.76
2023-05-04T01:05:12.511Z,50.69
2023-05-04T01:07:53.183Z,50.37
2023-05-04T01:10:25.464Z,50.65
2023-05-04T01:12:59.208Z,50.55
2023-05-04T01:15:29.636Z,50.67
2023-05-04T01:17:57.989Z,50.76
2023-05-04T01:20:26.278Z,50.76
2023-05-04T01:22:56.280Z,50.76
2023-05-04T01:25:28.376Z,50.82
2023-05-04T01:28:01.014Z,50.75
2023-05-04T01:30:33.558Z,50.66
2023-05-04T01:33:02.458Z,50.83
2023-05-04T01:35:31.230Z,50.85
2023-05-04T01:38:01.291Z,50.84
2023-05-04T01:40:29.552Z,50.91
2023-05-04T01:42:58.005Z,50.95
2023-05-04T01:45:26.287Z,50.97
2023-05-04T01:47:54.711Z,51.00
2023-05-04T01:50:23.029Z,51.12
2023-05-04T01:52:51.328Z,51.21
2023-05-04T01:55:21.095Z,51.19
2023-05-04T01:57:49.435Z,51.25
2023-05-04T02:00:18.353Z,51.31
2023-05-04T02:02:46.695Z,51.35
2023-05-04T02:05:19.215Z,51.32
2023-05-04T02:07:47.552Z,51.49
2023-05-04T02:10:16.225Z,51.54
2023-05-04T02:12:46.420Z,51.62
2023-05-04T02:15:15.003Z,51.66
2023-05-04T02:17:44.495Z,51.64
2023-05-04T02:20:14.005Z,51.82
2023-05-04T02:22:46.525Z,51.98
2023-05-04T02:25:14.819Z,52.04
2023-05-04T02:27:43.152Z,52.14
2023-05-04T02:30:14.747Z,52.18
2023-05-04T02:32:43.169Z,52.38
2023-05-04T02:35:11.547Z,52.55
2023-05-04T02:37:39.902Z,52.82
2023-05-04T02:40:09.670Z,53.01
2023-05-04T02:42:37.975Z,53.24
2023-05-04T02:45:07.699Z,53.51
2023-05-04T02:47:37.542Z,53.52
2023-05-04T02:50:07.231Z,53.58
2023-05-04T02:52:35.817Z,53.79
2023-05-04T02:55:04.167Z,53.72
2023-05-04T02:57:32.637Z,53.81
2023-05-04T03:00:00.897Z,54.00
2023-05-04T03:02:29.264Z,54.06
2023-05-04T03:04:59.006Z,53.98
2023-05-04T03:07:27.702Z,53.99
2023-05-04T03:09:56.047Z,54.05
2023-05-04T03:12:25.616Z,54.10
2023-05-04T03:14:53.936Z,54.02
2023-05-04T03:17:22.278Z,54.01
2023-05-04T03:19:50.551Z,53.91
2023-05-04T03:22:20.699Z,53.78
2023-05-04T03:24:49.076Z,53.76
2023-05-04T03:27:18.456Z,53.76
2023-05-04T03:29:47.593Z,53.74
2023-05-04T03:32:16.774Z,53.51
2023-05-04T03:34:45.927Z,53.37
2023-05-04T03:37:15.203Z,53.32
2023-05-04T03:39:44.905Z,53.29
2023-05-04T03:42:13.191Z,53.41
2023-05-04T03:44:42.283Z,53.37
2023-05-04T03:47:10.804Z,53.34
2023-05-04T03:49:39.227Z,53.20
2023-05-04T03:52:07.916Z,53.23
2023-05-04T03:54:36.924Z,53.13
2023-05-04T03:57:06.725Z,52.98
2023-05-04T03:59:36.764Z,52.98
2023-05-04T04:02:07.247Z,52.91
2023-05-04T04:04:35.831Z,52.88
2023-05-04T04:07:04.106Z,52.77
2023-05-04T04:09:32.757Z,52.80
2023-05-04T04:12:01.065Z,52.84
2023-05-04T04:14:31.127Z,52.72
2023-05-04T04:16:59.407Z,52.60
2023-05-04T04:19:27.950Z,52.72
2023-05-04T04:21:58.315Z,52.60
2023-05-04T04:24:26.593Z,52.67
2023-05-04T04:26:55.090Z,52.61
2023-05-04T04:29:23.356Z,52.67
2023-05-04T04:31:53.009Z,52.55
2023-05-04T04:34:21.361Z,52.61
2023-05-04T04:36:49.947Z,52.43
2023-05-04T04:39:18.336Z,52.33
2023-05-04T04:41:46.673Z,52.21
2023-05-04T04:44:15.061Z,52.14
2023-05-04T04:46:44.715Z,52.03
2023-05-04T04:49:14.465Z,52.00
2023-05-04T04:51:42.664Z,51.94
2023-05-04T04:54:11.382Z,51.79
2023-05-04T04:56:40.626Z,51.64
2023-05-04T04:59:10.716Z,51.76
2023-05-04T05:01:39.075Z,51.59
2023-05-04T05:04:07.710Z,51.38
2023-05-04T05:06:37.867Z,51.29
2023-05-04T05:09:06.202Z,51.43
2023-05-04T05:11:34.484Z,51.35
2023-05-04T05:14:02.739Z,51.10
2023-05-04T05:16:31.133Z,51.08
2023-05-04T05:18:59.424Z,51.05
2023-05-04T05:21:27.776Z,50.95
2023-05-04T05:23:57.514Z,50.84
2023-05-04T05:26:25.970Z,50.82
2023-05-04T05:28:54.364Z,50.65
2023-05-04T05:31:22.766Z,50.61
2023-05-04T05:33:51.103Z,50.60
2023-05-04T05:36:19.390Z,50.49
2023-05-04T05:38:49.733Z,50.47
2023-05-04T05:41:20.148Z,50.23
2023-05-04T05:43:48.405Z,50.02
2023-05-04T05:46:16.706Z,49.93
2023-05-04T05:48:45.040Z,49.67
2023-05-04T05:51:13.383Z,49.22
2023-05-04T05:53:42.841Z,49.31
2023-05-04T05:56:11.145Z,49.29
2023-05-04T05:58:41.026Z,49.10
2023-05-04T06:01:09.324Z,48.76
2023-05-04T06:03:37.815Z,48.66
2023-05-04T06:06:06.464Z,48.90
2023-05-04T06:08:34.908Z,48.66
2023-05-04T06:11:03.227Z,48.47
2023-05-04T06:13:31.477Z,48.48
2023-05-04T06:16:01.307Z,48.21
2023-05-04T06:18:29.647Z,48.02
2023-05-04T06:21:01.362Z,47.69
2023-05-04T06:23:30.161Z,47.73
2023-05-04T06:25:58.618Z,47.53
2023-05-04T06:28:26.983Z,47.44
2023-05-04T06:30:55.290Z,47.25
2023-05-04T06:33:25.000Z,47.13
2023-05-04T06:35:53.940Z,47.31
2023-05-04T06:38:22.490Z,46.75
2023-05-04T06:40:51.025Z,46.93
2023-05-04T06:43:19.265Z,46.31
2023-05-04T06:45:47.650Z,46.12
2023-05-04T06:48:15.964Z,45.91
2023-05-04T06:50:45.678Z,46.04
2023-05-04T06:53:13.977Z,46.03
2023-05-04T06:55:42.327Z,45.96
2023-05-04T06:58:10.576Z,45.54
2023-05-04T07:00:38.860Z,45.57
2023-05-04T07:03:07.173Z,45.27
2023-05-04T07:05:38.164Z,44.25
2023-05-04T07:08:09.871Z,44.30
2023-05-04T07:10:42.284Z,43.93
2023-05-04T07:13:11.218Z,43.36
2023-05-04T07:15:40.208Z,42.98
2023-05-04T07:18:08.665Z,42.84
2023-05-04T07:20:37.379Z,42.18
2023-05-04T07:23:07.184Z,41.91
2023-05-04T07:25:35.636Z,40.24
2023-05-04T07:28:07.273Z,40.81
2023-05-04T07:30:35.384Z,40.25
2023-05-04T07:33:03.447Z,39.69
2023-05-04T07:35:31.519Z,39.42
2023-05-04T07:37:59.536Z,38.82
2023-05-04T07:40:28.995Z,39.01
2023-05-04T07:42:57.156Z,38.30
2023-05-04T07:45:28.188Z,38.65
2023-05-04T07:47:56.383Z,38.20
2023-05-04T07:50:24.505Z,37.84
2023-05-04T07:52:52.574Z,37.63
2023-05-04T07:55:20.756Z,37.60
2023-05-04T07:57:50.150Z,36.91
2023-05-04T08:00:19.884Z,35.96
2023-05-04T08:02:48.225Z,36.63
2023-05-04T08:05:16.450Z,35.92
2023-05-04T08:07:47.316Z,36.37
2023-05-04T08:10:15.389Z,35.94
2023-05-04T08:12:44.069Z,36.01
2023-05-04T08:15:14.752Z,35.69
2023-05-04T08:17:42.864Z,35.56
2023-05-04T08:20:11.465Z,34.60
2023-05-04T08:22:41.679Z,35.12
2023-05-04T08:25:12.678Z,34.79
2023-05-04T08:27:41.177Z,34.54
2023-05-04T08:30:10.186Z,34.26
2023-05-04T08:32:40.122Z,34.23
2023-05-04T08:35:08.618Z,34.12
2023-05-04T08:37:36.886Z,34.25
2023-05-04T08:40:05.875Z,34.64
2023-05-04T08:42:34.722Z,34.16
2023-05-04T08:45:02.921Z,33.37
2023-05-04T08:47:31.204Z,34.20
2023-05-04T08:50:01.117Z,34.55
2023-05-04T08:52:29.697Z,33.57
2023-05-04T08:54:58.789Z,33.09
2023-05-04T08:57:27.663Z,32.63
2023-05-04T08:59:56.621Z,32.62
2023-05-04T09:02:26.118Z,32.67
2023-05-04T09:04:55.366Z,32.75
2023-05-04T09:07:24.791Z,33.53
2023-05-04T09:09:53.411Z,33.47
2023-05-04T09:12:21.436Z,31.81
2023-05-04T09:14:49.501Z,31.68
2023-05-04T09:17:25.732Z,30.76
2023-05-04T09:20:01.274Z,30.33
2023-05-04T09:22:31.456Z,29.93
2023-05-04T09:25:11.394Z,29.46
2023-05-04T09:27:41.445Z,29.75
2023-05-04T09:30:14.672Z,29.80
2023-05-04T09:32:47.301Z,30.00
2023-05-04T09:35:25.702Z,30.06
2023-05-04T09:38:02.243Z,29.14
2023-05-04T09:40:34.461Z,29.18
2023-05-04T09:43:06.680Z,29.08
2023-05-04T09:45:41.335Z,28.59
2023-05-04T09:48:20.103Z,29.37
2023-05-04T09:50:55.647Z,29.03
2023-05-04T09:53:26.553Z,28.35
2023-05-04T09:56:11.365Z,26.80
2023-05-04T09:58:40.304Z,28.12
2023-05-04T10:01:10.447Z,28.40
2023-05-04T10:03:39.054Z,28.43
2023-05-04T10:06:09.257Z,27.65
2023-05-04T10:08:40.160Z,28.10
2023-05-04T10:11:09.145Z,27.47
2023-05-04T10:13:37.476Z,27.69
2023-05-04T10:16:32.932Z,27.34
2023-05-04T10:19:39.222Z,27.15
2023-05-04T10:22:27.713Z,26.08
2023-05-04T10:25:19.744Z,24.91
2023-05-04T10:27:58.620Z,25.10
2023-05-04T10:30:27.174Z,25.15
2023-05-04T10:33:02.236Z,25.11
2023-05-04T10:35:30.588Z,26.04
2023-05-04T10:37:59.199Z,24.82
2023-05-04T10:40:37.944Z,24.72
2023-05-04T10:43:06.503Z,23.65
2023-05-04T10:45:38.837Z,24.66
2023-05-04T10:48:09.599Z,24.22
2023-05-04T10:50:45.128Z,23.14
2023-05-04T10:53:13.733Z,23.72
2023-05-04T10:55:42.835Z,23.96
2023-05-04T10:58:14.967Z,24.86
2023-05-04T11:00:45.986Z,24.92
2023-05-04T11:03:23.613Z,23.60
2023-05-04T11:05:54.800Z,22.84
2023-05-04T11:08:32.104Z,23.53
2023-05-04T11:11:03.407Z,23.62
2023-05-04T11:13:36.431Z,22.14
2023-05-04T11:16:04.970Z,23.20
2023-05-04T11:18:37.480Z,23.23
2023-05-04T11:21:06.187Z,23.37
2023-05-04T11:23:34.763Z,23.05
2023-05-04T11:26:07.929Z,22.45
2023-05-04T11:28:38.322Z,22.82
2023-05-04T11:31:17.273Z,22.59
2023-05-04T11:33:48.293Z,22.25
2023-05-04T11:36:17.778Z,21.77
2023-05-04T11:38:46.269Z,20.21
2023-05-04T11:41:14.615Z,19.78
2023-05-04T11:43:45.424Z,19.53
2023-05-04T11:46:14.243Z,20.15
2023-05-04T11:48:42.988Z,19.34
2023-05-04T11:51:12.906Z,20.23
2023-05-04T11:53:42.995Z,19.15
2023-05-04T11:56:11.501Z,19.94
2023-05-04T11:58:39.911Z,21.58
2023-05-04T12:01:08.276Z,20.82
2023-05-04T12:03:53.222Z,19.99
2023-05-04T12:06:34.173Z,19.22
2023-05-04T12:09:06.908Z,21.15
2023-05-04T12:11:38.407Z,19.47
2023-05-04T12:14:09.716Z,19.89
2023-05-04T12:16:38.491Z,19.58
2023-05-04T12:19:10.834Z,19.14
2023-05-04T12:21:52.579Z,19.34
2023-05-04T12:24:22.797Z,19.29
2023-05-04T12:26:51.245Z,17.85
2023-05-04T12:29:19.592Z,18.89
2023-05-04T12:31:47.964Z,18.98
2023-05-04T12:34:16.318Z,19.14
2023-05-04T12:36:46.358Z,18.44
2023-05-04T12:39:14.781Z,18.47
2023-05-04T12:41:43.074Z,18.51
2023-05-04T12:44:14.336Z,17.84
2023-05-04T12:46:43.204Z,17.80
2023-05-04T12:49:11.936Z,18.48
2023-05-04T12:51:40.222Z,18.63
2023-05-04T12:54:09.849Z,18.25
2023-05-04T12:56:39.768Z,18.18
2023-05-04T12:59:08.066Z,17.24
2023-05-04T13:01:36.440Z,17.27
2023-05-04T13:04:04.718Z,17.81
2023-05-04T13:06:33.017Z,17.07
2023-05-04T13:09:03.956Z,16.99
2023-05-04T13:11:33.666Z,17.25
2023-05-04T13:14:02.232Z,17.98
2023-05-04T13:16:30.803Z,18.35
2023-05-04T13:18:59.358Z,18.84
2023-05-04T13:21:27.605Z,18.74
2023-05-04T13:23:57.467Z,18.38
2023-05-04T13:26:25.921Z,18.87
2023-05-04T13:28:55.516Z,18.23
2023-05-04T13:31:23.653Z,19.04
2023-05-04T13:33:51.927Z,19.04
2023-05-04T13:36:20.105Z,19.63
2023-05-04T13:38:48.522Z,18.13
2023-05-04T13:41:16.611Z,18.42
2023-05-04T13:43:44.637Z,19.05
2023-05-04T13:46:14.129Z,18.23
2023-05-04T13:48:43.816Z,17.80
2023-05-04T13:51:12.361Z,18.64
2023-05-04T13:53:40.459Z,18.08
2023-05-04T13:56:08.563Z,17.75
2023-05-04T13:58:36.624Z,18.67
2023-05-04T14:01:04.708Z,18.25
2023-05-04T14:03:34.124Z,18.82
2023-05-04T14:06:02.140Z,19.09
2023-05-04T14:08:30.152Z,19.92
2023-05-04T14:10:58.719Z,20.14
2023-05-04T14:13:26.771Z,19.53
2023-05-04T14:15:54.773Z,19.38
2023-05-04T14:18:22.796Z,19.99
2023-05-04T14:20:52.239Z,20.76
2023-05-04T14:23:20.352Z,20.12
2023-05-04T14:25:51.625Z,20.28
2023-05-04T14:28:19.740Z,19.71
2023-05-04T14:30:47.739Z,19.73
2023-05-04T14:33:15.826Z,19.88
2023-05-04T14:35:48.020Z,20.53
2023-05-04T14:38:18.049Z,20.43
2023-05-04T14:40:48.356Z,20.30
2023-05-04T14:43:17.552Z,20.30
2023-05-04T14:45:45.668Z,20.62
2023-05-04T14:48:13.719Z,20.63
2023-05-04T14:50:42.569Z,21.35
2023-05-04T14:53:10.828Z,21.53
2023-05-04T14:55:41.981Z,21.90
2023-05-04T14:58:10.383Z,21.79
2023-05-04T15:00:38.949Z,20.87
2023-05-04T15:03:07.626Z,21.25
2023-05-04T15:05:35.802Z,21.06
2023-05-04T15:08:04.255Z,20.61
2023-05-04T15:10:32.317Z,21.35
2023-05-04T15:13:03.262Z,20.90
2023-05-04T15:15:31.367Z,20.81
2023-05-04T15:17:59.434Z,20.95
2023-05-04T15:20:27.695Z,21.17
2023-05-04T15:22:55.817Z,21.44
2023-05-04T15:25:25.165Z,21.79
2023-05-04T15:27:53.316Z,21.90
2023-05-04T15:30:23.436Z,21.50
2023-05-04T15:32:51.760Z,20.74
2023-05-04T15:35:20.022Z,20.76
2023-05-04T15:37:48.112Z,20.61
2023-05-04T15:40:16.245Z,20.76
2023-05-04T15:42:44.322Z,20.66
2023-05-04T15:45:12.502Z,20.51
2023-05-04T15:47:42.287Z,20.67
2023-05-04T15:50:10.791Z,21.37
2023-05-04T15:52:39.630Z,21.46
2023-05-04T15:55:23.478Z,21.61
2023-05-04T15:57:54.437Z,21.79
2023-05-04T16:00:22.982Z,22.17
2023-05-04T16:02:52.594Z,21.97
2023-05-04T16:05:21.453Z,22.04
2023-05-04T16:07:49.564Z,22.49
2023-05-04T16:10:17.791Z,22.48
2023-05-04T16:12:45.883Z,22.69
2023-05-04T16:15:14.495Z,22.77
2023-05-04T16:17:42.551Z,23.35
2023-05-04T16:20:12.869Z,23.14
2023-05-04T16:22:40.959Z,23.02
2023-05-04T16:25:11.172Z,22.22
2023-05-04T16:27:40.761Z,22.37
2023-05-04T16:30:10.371Z,23.04
2023-05-04T16:32:38.853Z,23.28
2023-05-04T16:35:08.202Z,23.05
2023-05-04T16:37:38.674Z,23.75
2023-05-04T16:40:11.424Z,23.40
2023-05-04T16:42:39.616Z,23.25
2023-05-04T16:45:08.686Z,23.43
2023-05-04T16:47:37.010Z,23.67
2023-05-04T16:50:06.709Z,23.30
2023-05-04T16:52:34.911Z,23.74
2023-05-04T16:55:04.690Z,24.13
2023-05-04T16:57:33.022Z,24.27
2023-05-04T17:00:01.768Z,23.93
2023-05-04T17:02:30.018Z,23.63
2023-05-04T17:04:58.462Z,23.95
2023-05-04T17:07:26.785Z,23.92
2023-05-04T17:09:55.559Z,23.99
2023-05-04T17:12:24.952Z,24.20
2023-05-04T17:14:53.068Z,24.20
2023-05-04T17:17:21.121Z,23.98
2023-05-04T17:19:50.326Z,24.44
2023-05-04T17:22:18.592Z,24.49
2023-05-04T17:24:46.741Z,24.39
2023-05-04T17:27:14.817Z,24.39
2023-05-04T17:29:44.659Z,24.79
2023-05-04T17:32:12.785Z,24.70
2023-05-04T17:34:42.174Z,25.02
2023-05-04T17:37:10.302Z,25.08
2023-05-04T17:39:38.404Z,24.98
2023-05-04T17:42:07.193Z,25.13
2023-05-04T17:44:35.337Z,25.30
2023-05-04T17:47:04.889Z,25.20
2023-05-04T17:49:32.927Z,25.47
2023-05-04T17:52:01.494Z,25.70
2023-05-04T17:54:29.655Z,25.72
2023-05-04T17:56:57.691Z,25.78
2023-05-04T17:59:25.793Z,25.84
2023-05-04T18:01:53.905Z,26.10
2023-05-04T18:04:23.496Z,26.12
2023-05-04T18:06:51.540Z,26.25
2023-05-04T18:09:19.790Z,26.48
2023-05-04T18:11:48.612Z,26.39
2023-05-04T18:14:16.794Z,26.65
2023-05-04T18:16:44.955Z,27.16
2023-05-04T18:19:13.154Z,27.16
2023-05-04T18:21:42.767Z,27.23
2023-05-04T18:24:10.893Z,27.39
2023-05-04T18:26:38.943Z,27.70
2023-05-04T18:29:17.763Z,28.04
2023-05-04T18:31:47.317Z,27.98
2023-05-04T18:34:15.580Z,28.31
2023-05-04T18:36:46.021Z,28.49
2023-05-04T18:39:15.644Z,28.76
2023-05-04T18:41:43.747Z,28.99
2023-05-04T18:44:18.186Z,29.15
2023-05-04T18:46:46.347Z,29.34
2023-05-04T18:49:15.693Z,29.64
2023-05-04T18:51:45.148Z,29.88
2023-05-04T18:54:15.272Z,30.19
2023-05-04T18:56:43.376Z,30.13
2023-05-04T18:59:11.834Z,30.29
2023-05-04T19:01:40.089Z,30.45
2023-05-04T19:04:08.218Z,30.64
2023-05-04T19:06:36.262Z,30.90
2023-05-04T19:09:06.710Z,30.90
2023-05-04T19:11:34.846Z,31.19
2023-05-04T19:14:03.021Z,31.30
2023-05-04T19:16:31.195Z,31.38
2023-05-04T19:18:59.542Z,31.50
2023-05-04T19:21:28.575Z,31.61
2023-05-04T19:23:56.841Z,31.61
2023-05-04T19:26:26.394Z,31.81
2023-05-04T19:28:54.488Z,32.09
2023-05-04T19:31:22.743Z,32.09
2023-05-04T19:33:52.198Z,32.47
2023-05-04T19:36:20.257Z,32.80
2023-05-04T19:38:48.368Z,33.02
2023-05-04T19:41:16.470Z,33.28
2023-05-04T19:43:46.109Z,33.50
2023-05-04T19:46:38.884Z,33.72
2023-05-04T19:49:35.529Z,34.25
2023-05-04T19:52:12.662Z,34.73
2023-05-04T19:54:55.787Z,34.83
2023-05-04T19:58:08.556Z,35.14
2023-05-04T20:00:43.301Z,35.40
2023-05-04T20:03:14.085Z,35.55
2023-05-04T20:05:45.833Z,35.73
2023-05-04T20:08:25.166Z,35.72
2023-05-04T20:10:54.773Z,36.10
2023-05-04T20:13:23.307Z,36.17
2023-05-04T20:15:53.062Z,36.46
2023-05-04T20:18:21.218Z,36.61
2023-05-04T20:20:56.716Z,36.73
2023-05-04T20:23:33.787Z,36.96
2023-05-04T20:26:07.329Z,37.20
2023-05-04T20:28:43.068Z,37.39
2023-05-04T20:31:36.956Z,37.13
2023-05-04T20:34:11.480Z,37.22
2023-05-04T20:36:41.034Z,37.51
2023-05-04T20:39:16.476Z,37.44
2023-05-04T20:41:57.966Z,37.61
2023-05-04T20:44:27.904Z,37.85
2023-05-04T20:47:02.951Z,37.85
2023-05-04T20:49:55.006Z,37.94
2023-05-04T20:52:42.833Z,38.24
2023-05-04T20:55:46.796Z,38.12
2023-05-04T20:58:20.370Z,38.26
2023-05-04T21:00:52.317Z,38.74
2023-05-04T21:03:42.441Z,39.34
2023-05-04T21:06:19.958Z,39.33
2023-05-04T21:08:51.913Z,39.70
2023-05-04T21:11:27.244Z,39.91
2023-05-04T21:13:55.594Z,40.55
2023-05-04T21:16:26.245Z,40.75
2023-05-04T21:18:55.873Z,41.04
2023-05-04T21:21:23.970Z,41.33
2023-05-04T21:23:52.111Z,41.71
2023-05-04T21:26:25.519Z,42.02
2023-05-04T21:28:53.690Z,42.33
2023-05-04T21:31:21.891Z,42.66
2023-05-04T21:33:55.309Z,42.66
2023-05-04T21:36:29.376Z,43.27
2023-05-04T21:38:57.580Z,43.44
2023-05-04T21:41:27.519Z,43.39
2023-05-04T21:43:56.304Z,43.67
2023-05-04T21:46:26.592Z,43.66
2023-05-04T21:48:54.859Z,43.74
2023-05-04T21:51:24.388Z,43.89
2023-05-04T21:53:52.556Z,43.87
2023-05-04T21:56:21.185Z,44.09
2023-05-04T21:58:49.320Z,44.14
2023-05-04T22:01:18.393Z,44.29
2023-05-04T22:03:47.004Z,44.49
2023-05-04T22:06:15.643Z,44.70
2023-05-04T22:08:45.154Z,44.69
2023-05-04T22:11:13.353Z,44.87
2023-05-04T22:13:42.659Z,44.91
2023-05-04T22:16:10.900Z,45.00
2023-05-04T22:18:39.593Z,44.99
2023-05-04T22:21:09.718Z,45.04
2023-05-04T22:23:37.885Z,45.32
2023-05-04T22:26:07.479Z,45.25
2023-05-04T22:28:35.674Z,45.23
2023-05-04T22:31:03.864Z,45.31
2023-05-04T22:33:32.017Z,45.46
2023-05-04T22:36:00.199Z,45.54
2023-05-04T22:38:28.260Z,45.56
2023-05-04T22:40:56.312Z,45.85
2023-05-04T22:43:25.782Z,45.83
2023-05-04T22:45:56.600Z,45.96
2023-05-04T22:48:25.684Z,46.06
2023-05-04T22:50:54.974Z,46.12
2023-05-04T22:53:23.418Z,46.02
2023-05-04T22:55:51.710Z,46.08
2023-05-04T22:58:19.826Z,46.22
2023-05-04T23:00:49.303Z,46.12
2023-05-04T23:03:17.770Z,46.35
2023-05-04T23:05:46.073Z,46.38
2023-05-04T23:08:14.399Z,46.51
2023-05-04T23:10:45.729Z,46.51
2023-05-04T23:13:14.302Z,46.73
2023-05-04T23:15:42.450Z,47.05
2023-05-04T23:18:12.883Z,47.03
2023-05-04T23:20:41.040Z,47.01
2023-05-04T23:23:09.088Z,46.98
2023-05-04T23:25:37.341Z,46.76
2023-05-04T23:28:05.696Z,47.08
2023-05-04T23:30:33.756Z,47.04
2023-05-04T23:33:01.896Z,47.28
2023-05-04T23:35:31.329Z,47.45
2023-05-04T23:37:59.414Z,47.22
2023-05-04T23:40:27.435Z,47.44
2023-05-04T23:42:55.434Z,47.65
2023-05-04T23:45:23.557Z,47.34
2023-05-04T23:47:51.688Z,47.52
2023-05-04T23:50:19.970Z,47.50
2023-05-04T23:52:49.629Z,47.37
2023-05-04T23:55:18.032Z,47.38
2023-05-04T23:57:46.635Z,47.47
